createdAt,value
2022-08-02T00:00:59.184Z,16.11
2022-08-02T00:06:01.913Z,16.28
2022-08-02T00:11:04.606Z,16.01
2022-08-02T00:16:08.660Z,15.64
2022-08-02T00:21:11.728Z,15.63
2022-08-02T00:26:14.469Z,15.77
2022-08-02T00:31:18.505Z,16.08
2022-08-02T00:36:21.214Z,16.13
2022-08-02T00:41:24.205Z,15.94
2022-08-02T00:46:28.254Z,15.39
2022-08-02T00:51:30.942Z,15.51
2022-08-02T00:56:34.006Z,15.23
2022-08-02T01:01:54.603Z,15.64
2022-08-02T01:07:01.057Z,15.78
2022-08-02T01:12:03.781Z,15.83
2022-08-02T01:17:11.856Z,15.83
2022-08-02T01:23:00.174Z,15.78
2022-08-02T01:28:21.936Z,15.74
2022-08-02T01:33:27.878Z,15.56
2022-08-02T01:38:34.053Z,15.63
2022-08-02T01:43:39.410Z,15.45
2022-08-02T01:48:42.822Z,15.46
2022-08-02T01:53:48.027Z,15.43
2022-08-02T01:58:53.309Z,15.44
2022-08-02T02:03:56.008Z,15.33
2022-08-02T02:08:59.821Z,15.29
2022-08-02T02:14:05.086Z,15.29
2022-08-02T02:19:08.358Z,15.29
2022-08-02T02:24:11.830Z,15.24
2022-08-02T02:29:17.441Z,15.07
2022-08-02T02:34:26.592Z,15.11
2022-08-02T02:39:30.117Z,15.09
2022-08-02T02:44:34.429Z,15.10
2022-08-02T02:49:37.642Z,15.13
2022-08-02T02:54:40.560Z,15.09
2022-08-02T02:59:49.668Z,15.00
2022-08-02T03:04:56.859Z,14.97
2022-08-02T03:10:00.860Z,14.86
2022-08-02T03:15:08.227Z,14.79
2022-08-02T03:20:12.786Z,14.70
2022-08-02T03:25:17.017Z,14.73
2022-08-02T03:30:24.575Z,14.67
2022-08-02T03:35:27.270Z,14.67
2022-08-02T03:40:30.034Z,14.54
2022-08-02T03:45:34.081Z,14.61
2022-08-02T03:50:37.854Z,14.62
2022-08-02T03:55:41.060Z,14.59
2022-08-02T04:00:45.359Z,14.52
2022-08-02T04:06:03.574Z,14.50
2022-08-02T04:11:24.069Z,14.47
2022-08-02T04:16:32.137Z,14.53
2022-08-02T04:21:48.580Z,14.39
2022-08-02T04:26:57.772Z,14.29
2022-08-02T04:32:11.505Z,14.38
2022-08-02T04:37:14.774Z,14.21
2022-08-02T04:42:22.046Z,14.63
2022-08-02T04:48:02.312Z,14.74
2022-08-02T04:52:49.174Z,15.45
2022-08-02T04:57:57.597Z,15.27
2022-08-02T05:03:02.338Z,15.41
2022-08-02T05:08:05.597Z,15.07
2022-08-02T05:13:08.282Z,15.49
2022-08-02T05:18:12.436Z,15.52
2022-08-02T05:23:15.990Z,15.86
2022-08-02T05:28:18.680Z,15.67
2022-08-02T05:33:23.281Z,16.53
2022-08-02T05:38:26.385Z,15.85
2022-08-02T05:43:29.098Z,15.73
2022-08-02T05:48:33.083Z,15.83
2022-08-02T05:53:39.973Z,15.93
2022-08-02T05:58:51.022Z,16.06
2022-08-02T06:03:59.090Z,16.21
2022-08-02T06:09:03.983Z,16.25
2022-08-02T06:14:08.144Z,16.41
2022-08-02T06:19:13.340Z,16.63
2022-08-02T06:24:18.992Z,16.58
2022-08-02T06:29:23.133Z,16.66
2022-08-02T06:34:27.530Z,16.95
2022-08-02T06:39:33.906Z,17.17
2022-08-02T06:44:48.820Z,17.23
2022-08-02T06:49:54.987Z,17.71
2022-08-02T06:54:59.519Z,17.77
2022-08-02T07:00:04.550Z,17.86
2022-08-02T07:05:09.729Z,18.19
2022-08-02T07:10:13.047Z,18.45
2022-08-02T07:15:16.357Z,18.51
2022-08-02T07:20:20.353Z,18.54
2022-08-02T07:25:23.232Z,18.79
2022-08-02T07:30:25.891Z,19.16
2022-08-02T07:35:29.906Z,19.03
2022-08-02T07:40:36.017Z,19.13
2022-08-02T07:45:45.642Z,19.39
2022-08-02T07:51:00.072Z,19.81
2022-08-02T07:56:02.729Z,19.66
2022-08-02T08:01:05.650Z,19.90
2022-08-02T08:06:09.657Z,20.33
2022-08-02T08:11:12.365Z,20.60
2022-08-02T08:16:15.017Z,20.78
2022-08-02T08:21:19.075Z,20.62
2022-08-02T08:26:21.739Z,20.92
2022-08-02T08:31:24.423Z,20.89
2022-08-02T08:36:28.614Z,21.37
2022-08-02T08:41:31.292Z,21.57
2022-08-02T08:46:34.865Z,21.68
2022-08-02T08:51:44.424Z,21.50
2022-08-02T08:56:47.571Z,21.97
2022-08-02T09:01:51.298Z,22.10
2022-08-02T09:06:55.584Z,21.78
2022-08-02T09:12:14.882Z,21.81
2022-08-02T09:17:18.336Z,22.30
2022-08-02T09:22:22.337Z,22.63
2022-08-02T09:27:25.033Z,22.72
2022-08-02T09:32:29.665Z,22.94
2022-08-02T09:37:33.664Z,23.14
2022-08-02T09:42:36.419Z,23.18
2022-08-02T09:47:39.074Z,23.41
2022-08-02T09:52:44.272Z,23.32
2022-08-02T09:57:51.012Z,23.54
2022-08-02T10:03:07.704Z,23.79
2022-08-02T10:08:11.881Z,24.04
2022-08-02T10:13:14.687Z,24.16
2022-08-02T10:18:38.065Z,24.30
2022-08-02T10:23:44.811Z,24.50
2022-08-02T10:28:49.369Z,24.89
2022-08-02T10:33:53.908Z,24.85
2022-08-02T10:38:59.497Z,24.80
2022-08-02T10:44:02.276Z,25.11
2022-08-02T10:54:36.678Z,25.31
2022-08-02T10:59:39.551Z,25.53
2022-08-02T11:05:04.425Z,25.91
2022-08-02T11:10:43.687Z,25.75
2022-08-02T11:15:56.918Z,26.02
2022-08-02T11:21:24.655Z,26.07
2022-08-02T11:26:44.572Z,26.33
2022-08-02T11:31:48.905Z,25.82
2022-08-02T11:36:52.625Z,26.40
2022-08-02T11:41:57.927Z,26.45
2022-08-02T11:47:03.570Z,26.99
2022-08-02T11:52:10.108Z,26.85
2022-08-02T11:57:19.312Z,27.07
2022-08-02T12:02:26.681Z,27.10
2022-08-02T12:07:35.172Z,27.73
2022-08-02T12:12:49.019Z,27.79
2022-08-02T12:18:10.777Z,27.51
2022-08-02T12:23:13.835Z,27.44
2022-08-02T12:28:18.498Z,27.31
2022-08-02T12:33:23.656Z,27.54
2022-08-02T12:38:26.500Z,27.28
2022-08-02T12:43:29.164Z,27.51
2022-08-02T12:48:37.747Z,27.77
2022-08-02T12:53:41.180Z,27.93
2022-08-02T12:58:50.521Z,27.60
2022-08-02T13:04:10.774Z,27.76
2022-08-02T13:09:17.599Z,27.32
2022-08-02T13:14:20.556Z,27.55
2022-08-02T13:19:24.581Z,27.42
2022-08-02T13:24:38.365Z,27.78
2022-08-02T13:29:41.845Z,27.58
2022-08-02T13:34:45.948Z,28.00
2022-08-02T13:40:06.038Z,27.63
2022-08-02T13:45:12.826Z,28.25
2022-08-02T13:50:18.389Z,28.20
2022-08-02T13:55:21.326Z,28.10
2022-08-02T14:00:34.855Z,28.22
2022-08-02T14:05:48.255Z,28.33
2022-08-02T14:10:52.688Z,28.21
2022-08-02T14:15:55.608Z,28.48
2022-08-02T14:20:59.714Z,28.02
2022-08-02T14:26:04.527Z,28.50
2022-08-02T14:31:07.295Z,28.32
2022-08-02T14:36:15.706Z,28.23
2022-08-02T14:41:33.657Z,27.82
2022-08-02T14:46:36.903Z,28.00
2022-08-02T14:51:40.992Z,27.96
2022-08-02T14:56:43.685Z,28.28
2022-08-02T15:01:46.749Z,28.04
2022-08-02T15:06:51.341Z,28.46
2022-08-02T15:11:57.234Z,28.04
2022-08-02T15:17:09.302Z,28.28
2022-08-02T15:22:14.509Z,28.22
2022-08-02T15:27:19.189Z,28.41
2022-08-02T15:32:21.829Z,27.96
2022-08-02T15:37:25.971Z,27.92
2022-08-02T15:42:33.890Z,28.14
2022-08-02T15:47:36.633Z,27.94
2022-08-02T15:52:40.810Z,27.79
2022-08-02T15:57:43.530Z,28.06
2022-08-02T16:02:46.869Z,28.17
2022-08-02T16:07:52.040Z,27.97
2022-08-02T16:13:14.700Z,27.74
2022-08-02T16:18:17.404Z,27.73
2022-08-02T16:23:21.448Z,27.65
2022-08-02T16:28:44.108Z,27.74
2022-08-02T16:33:46.826Z,27.82
2022-08-02T16:38:50.883Z,27.73
2022-08-02T16:43:53.573Z,27.71
2022-08-02T16:48:56.590Z,27.58
2022-08-02T16:54:01.126Z,27.51
2022-08-02T16:59:03.966Z,27.64
2022-08-02T17:04:07.011Z,27.58
2022-08-02T17:09:12.161Z,27.58
2022-08-02T17:14:55.265Z,27.38
2022-08-02T17:19:58.620Z,27.41
2022-08-02T17:25:04.973Z,27.44
2022-08-02T17:30:11.002Z,27.39
2022-08-02T17:35:15.611Z,27.28
2022-08-02T17:40:20.615Z,27.20
2022-08-02T17:45:27.844Z,27.13
2022-08-02T17:50:49.189Z,27.10
2022-08-02T17:55:53.235Z,27.06
2022-08-02T18:00:56.916Z,27.06
2022-08-02T18:06:00.837Z,26.97
2022-08-02T18:11:05.586Z,26.86
2022-08-02T18:16:20.957Z,26.73
2022-08-02T18:21:24.671Z,26.61
2022-08-02T18:26:29.301Z,26.51
2022-08-02T18:31:39.685Z,26.40
2022-08-02T18:36:47.465Z,26.34
2022-08-02T18:41:51.818Z,26.22
2022-08-02T18:46:54.928Z,26.05
2022-08-02T18:51:58.188Z,25.89
2022-08-02T18:57:04.224Z,25.80
2022-08-02T19:02:26.073Z,25.69
2022-08-02T19:07:50.734Z,25.52
2022-08-02T19:12:54.817Z,25.44
2022-08-02T19:17:58.153Z,25.28
2022-08-02T19:23:02.731Z,25.17
2022-08-02T19:28:06.936Z,25.11
2022-08-02T19:33:11.347Z,25.00
2022-08-02T19:38:28.020Z,24.87
2022-08-02T19:44:25.924Z,24.76
2022-08-02T19:48:55.094Z,24.71
2022-08-02T19:54:00.773Z,24.53
2022-08-02T19:59:13.270Z,24.41
2022-08-02T20:04:23.383Z,24.25
2022-08-02T20:09:33.109Z,24.22
2022-08-02T20:14:37.995Z,24.10
2022-08-02T20:19:41.093Z,24.06
2022-08-02T20:24:49.376Z,24.03
2022-08-02T20:29:53.439Z,23.99
2022-08-02T20:34:56.122Z,23.76
2022-08-02T20:40:00.022Z,23.68
2022-08-02T20:45:04.593Z,23.60
2022-08-02T20:50:30.580Z,23.45
2022-08-02T20:55:35.571Z,23.34
2022-08-02T21:00:40.187Z,23.27
2022-08-02T21:05:55.820Z,23.20
2022-08-02T21:10:58.924Z,23.08
2022-08-02T21:21:26.115Z,22.82
2022-08-02T21:26:32.594Z,22.64
2022-08-02T21:31:36.931Z,22.61
2022-08-02T21:36:39.622Z,22.53
2022-08-02T21:41:46.291Z,22.52
2022-08-02T21:46:53.824Z,22.47
2022-08-02T21:51:56.643Z,22.42
2022-08-02T21:56:59.316Z,22.33
2022-08-02T22:02:04.182Z,22.35
2022-08-02T22:07:11.281Z,22.19
2022-08-02T22:12:18.240Z,22.10
2022-08-02T22:17:52.715Z,22.04
2022-08-02T22:22:48.296Z,21.88
2022-08-02T22:28:34.725Z,21.82
2022-08-02T22:33:35.160Z,21.86
2022-08-02T22:38:38.006Z,21.77
2022-08-02T22:43:40.848Z,21.62
2022-08-02T22:48:45.452Z,21.42
2022-08-02T22:53:48.442Z,21.31
2022-08-02T22:59:02.308Z,22.96
2022-08-02T23:04:15.229Z,21.29
2022-08-02T23:09:17.926Z,21.24
2022-08-02T23:14:20.822Z,21.20
2022-08-02T23:19:42.428Z,21.21
2022-08-02T23:24:45.518Z,21.24
2022-08-02T23:29:49.112Z,21.14
2022-08-02T23:34:53.224Z,20.98
2022-08-02T23:39:55.908Z,20.84
2022-08-02T23:44:58.625Z,20.74
2022-08-02T23:50:02.821Z,20.68
2022-08-02T23:55:06.641Z,20.62
